Hub


Voltar

 INFORMAÇÕES METEOROLÓGICAS

METAR FOR WABB


ADDS - METARS form results

(0322 UTC 20 April 2019)
Data provider http://aviationweather.gov/metar/data/
 
METAR text: WABB 200300Z 18002KT 9999 SCT018 30/26 Q1008 NOSIG
Conditions at: WABB (BIAK/FRANS KAISI, ID) observed 0300 UTC 20 April 2019
Temperature: 30.0°C (86°F)
Dewpoint: 26.0°C (79°F) [RH = 79%]
Pressure (altimeter): 29.76 inches Hg (1008.0 mb)
Winds: from the S (180 degrees) at 2 MPH (2 knots; 1.0 m/s)
Visibility: 6 or more miles (10+ km)
Ceiling: at least 12,000 feet AGL
Clouds: scattered clouds at 1800 feet AGL
Weather: no significant weather observed at this time

METAR text: WABB 200230Z 22006KT 9999 SCT018 31/26 Q1008 NOSIG
Conditions at: WABB (BIAK/FRANS KAISI, ID) observed 0230 UTC 20 April 2019
Temperature: 31.0°C (88°F)
Dewpoint: 26.0°C (79°F) [RH = 75%]
Pressure (altimeter): 29.76 inches Hg (1008.0 mb)
Winds: from the SW (220 degrees) at 7 MPH (6 knots; 3.1 m/s)
Visibility: 6 or more miles (10+ km)
Ceiling: at least 12,000 feet AGL
Clouds: scattered clouds at 1800 feet AGL
Weather: no significant weather observed at this time

Forecast for: WABB (BIAK/FRANS KAISI, ID)
Text: TAF WABB 192200Z 2000/2106 25007KT 8000 BKN018
Forecast period: 0000 to 1000 UTC 20 April 2019
Forecast type: FROM: standard forecast or significant change
Winds: from the WSW (250 degrees) at 8 MPH (7 knots; 3.6 m/s)
Visibility: 5 miles (8 km)
Ceiling: 1800 feet AGL
Clouds: broken clouds at 1800 feet AGL
Weather: no significant weather forecast for this period
Text: BECMG 2010/2012 00000KT
Forecast period: 1000 UTC 20 April 2019 to 0600 UTC 21 April 2019
Forecast type: BECOMING: Conditions expected to become as follows by 1200 UTC 20 April 2019
Winds: calm
Visibility: 5 miles (8 km)
Ceiling: 1800 feet AGL
Clouds: broken clouds at 1800 feet AGL
Weather: no significant weather forecast for this period


 MAPA DO AEROPORTO


 INFORMAÇÕES DA PISTA

Pista 11 Tamanho da pista 11715 ft Largura da pista 150 ft
Elevação da pista 36 ft Ranhura da pista 0 ft Proa da pista 109
Pista 29 Tamanho da pista 11715 ft Largura da pista 150 ft
Elevação da pista 25 ft Ranhura da pista 0 ft Proa da pista 289

 FREQUÊNCIAS DO AEROPORTO

Tipo APP Nome BIAK APP Frequência 121.2 MHZ
Tipo ATIS Nome ATIS Frequência 126.5 MHZ
Tipo INFO Nome BIAK INFO Frequência 295.6 MHZ
Tipo TWR Nome TWR Frequência 118.1 MHZ

 AUXÍLIOS DE NAVEGAÇÃO PRÓXIMOS AO AEROPORTO

Tipo VOR-DME Nome Biak Frequência 112500 KHZ
Tipo NDB Nome Biak Frequência 230 KHZ